Petersville, North Carolina
Current Conditions -  °F | °C
As of 9:55 AM on Wednesday 26 Nov 2014 (Local Time) from KEXX Reporting Station
Light Rain Light Rain  
Wind Chill: 40°   Ceiling: Unl
Heat Index: 43°   Visibility: 7mi
Dew Point: 42°   Wind: 5mph
Humidity: 95%   Direction: 30°NNE
Pressure: 29.96"   Gusts: NA
Location:  35.7974°N, 80.2541°W
Report Text: KEXX 261455Z AUTO 03004KT 7SM -RA SCT055 06/05 A2996 RMK AO2 P0006 60019 T00600053
Loading
Personal Weather Stations






























Interactive Weather Map New forecast layout! Learn more

10-Day Weather Forecast

Advertisements
Track Severe Weather on mobile